sensor_id;sensor_type;location;lat;lon;timestamp;pressure;altitude;pressure_sealevel;temperature;humidity
3122;BME280;1571;52.524;14.104;2024-01-30T00:01:46;102420.16;;;2.35;77.57
3122;BME280;1571;52.524;14.104;2024-01-30T00:04:14;102417.53;;;2.34;77.62
3122;BME280;1571;52.524;14.104;2024-01-30T00:06:43;102414.91;;;2.44;77.68
3122;BME280;1571;52.524;14.104;2024-01-30T00:09:12;102421.91;;;2.22;77.72
3122;BME280;1571;52.524;14.104;2024-01-30T00:11:42;102426.28;;;1.96;78.15
3122;BME280;1571;52.524;14.104;2024-01-30T00:14:10;102424.53;;;1.95;78.68
3122;BME280;1571;52.524;14.104;2024-01-30T00:16:38;102425.41;;;1.95;78.84
3122;BME280;1571;52.524;14.104;2024-01-30T00:19:06;102428.91;;;2.06;78.78
3122;BME280;1571;52.524;14.104;2024-01-30T00:21:35;102426.28;;;2.02;78.96
3122;BME280;1571;52.524;14.104;2024-01-30T00:24:04;102421.06;;;1.99;79.29
3122;BME280;1571;52.524;14.104;2024-01-30T00:26:32;102427.19;;;1.96;79.31
3122;BME280;1571;52.524;14.104;2024-01-30T00:29:02;102417.56;;;2.07;79.03
3122;BME280;1571;52.524;14.104;2024-01-30T00:31:30;102428.03;;;2.00;79.09
3122;BME280;1571;52.524;14.104;2024-01-30T00:33:59;102426.28;;;1.96;79.20
3122;BME280;1571;52.524;14.104;2024-01-30T00:36:27;102423.66;;;1.83;79.51
3122;BME280;1571;52.524;14.104;2024-01-30T00:38:57;102423.66;;;1.86;79.48
3122;BME280;1571;52.524;14.104;2024-01-30T00:41:25;102429.78;;;1.82;79.60
3122;BME280;1571;52.524;14.104;2024-01-30T00:43:53;102427.19;;;1.82;79.59
3122;BME280;1571;52.524;14.104;2024-01-30T00:46:23;102427.19;;;1.87;80.02
3122;BME280;1571;52.524;14.104;2024-01-30T00:48:51;102423.66;;;1.86;80.10
3122;BME280;1571;52.524;14.104;2024-01-30T00:51:20;102418.44;;;1.88;80.08
3122;BME280;1571;52.524;14.104;2024-01-30T00:53:48;102425.41;;;1.72;80.40
3122;BME280;1571;52.524;14.104;2024-01-30T00:56:16;102414.94;;;1.80;80.21
3122;BME280;1571;52.524;14.104;2024-01-30T00:58:45;102419.25;;;1.52;80.74
3122;BME280;1571;52.524;14.104;2024-01-30T01:01:13;102421.03;;;1.68;81.09
3122;BME280;1571;52.524;14.104;2024-01-30T01:03:43;102412.31;;;1.75;81.33
3122;BME280;1571;52.524;14.104;2024-01-30T01:06:12;102417.53;;;1.75;81.15
3122;BME280;1571;52.524;14.104;2024-01-30T01:08:41;102421.03;;;1.73;81.07
3122;BME280;1571;52.524;14.104;2024-01-30T01:11:09;102413.19;;;1.83;80.98
3122;BME280;1571;52.524;14.104;2024-01-30T01:13:37;102425.41;;;1.80;81.12
3122;BME280;1571;52.524;14.104;2024-01-30T01:16:06;102419.28;;;1.79;81.29
3122;BME280;1571;52.524;14.104;2024-01-30T01:18:34;102420.19;;;1.81;81.06
3122;BME280;1571;52.524;14.104;2024-01-30T01:21:04;102415.81;;;1.74;81.13
3122;BME280;1571;52.524;14.104;2024-01-30T01:23:32;102419.28;;;1.58;81.32
3122;BME280;1571;52.524;14.104;2024-01-30T01:26:01;102423.63;;;1.59;81.38
3122;BME280;1571;52.524;14.104;2024-01-30T01:28:29;102413.16;;;1.62;81.61
3122;BME280;1571;52.524;14.104;2024-01-30T01:30:57;102414.03;;;1.55;81.69
3122;BME280;1571;52.524;14.104;2024-01-30T01:33:32;102413.16;;;1.45;82.15
3122;BME280;1571;52.524;14.104;2024-01-30T01:36:01;102414.84;;;1.32;82.53
3122;BME280;1571;52.524;14.104;2024-01-30T01:38:31;102414.00;;;1.33;82.13
3122;BME280;1571;52.524;14.104;2024-01-30T01:40:59;102412.22;;;1.29;82.60
3122;BME280;1571;52.524;14.104;2024-01-30T01:43:27;102412.25;;;1.35;83.04
3122;BME280;1571;52.524;14.104;2024-01-30T01:45:55;102407.94;;;1.47;82.56
3122;BME280;1571;52.524;14.104;2024-01-30T01:48:24;102407.03;;;1.48;82.47
3122;BME280;1571;52.524;14.104;2024-01-30T01:50:52;102405.31;;;1.56;82.30
3122;BME280;1571;52.524;14.104;2024-01-30T01:53:21;102402.69;;;1.47;82.23
3122;BME280;1571;52.524;14.104;2024-01-30T01:55:51;102403.56;;;1.55;82.57
3122;BME280;1571;52.524;14.104;2024-01-30T01:58:21;102418.41;;;1.51;82.32
3122;BME280;1571;52.524;14.104;2024-01-30T02:00:51;102407.91;;;1.57;82.27
3122;BME280;1571;52.524;14.104;2024-01-30T02:03:20;102405.31;;;1.56;82.41
3122;BME280;1571;52.524;14.104;2024-01-30T02:05:50;102401.81;;;1.54;82.73
3122;BME280;1571;52.524;14.104;2024-01-30T02:08:18;102400.06;;;1.54;82.54
3122;BME280;1571;52.524;14.104;2024-01-30T02:10:47;102392.22;;;1.51;82.83
3122;BME280;1571;52.524;14.104;2024-01-30T02:13:16;102396.59;;;1.61;82.82
3122;BME280;1571;52.524;14.104;2024-01-30T02:15:49;102395.72;;;1.65;82.60
3122;BME280;1571;52.524;14.104;2024-01-30T02:18:18;102395.72;;;1.69;82.77
3122;BME280;1571;52.524;14.104;2024-01-30T02:20:46;102395.72;;;1.56;82.57
3122;BME280;1571;52.524;14.104;2024-01-30T02:23:16;102387.00;;;1.47;82.73
3122;BME280;1571;52.524;14.104;2024-01-30T02:25:44;102402.69;;;1.45;82.52
3122;BME280;1571;52.524;14.104;2024-01-30T02:28:13;102386.09;;;1.44;82.73
3122;BME280;1571;52.524;14.104;2024-01-30T02:30:42;102393.09;;;1.58;82.69
3122;BME280;1571;52.524;14.104;2024-01-30T02:33:11;102394.84;;;1.56;82.88
3122;BME280;1571;52.524;14.104;2024-01-30T02:35:39;102391.34;;;1.48;82.52
3122;BME280;1571;52.524;14.104;2024-01-30T02:38:08;102391.31;;;1.51;82.66
3122;BME280;1571;52.524;14.104;2024-01-30T02:40:37;102394.84;;;1.47;82.57
3122;BME280;1571;52.524;14.104;2024-01-30T02:43:06;102392.16;;;1.37;82.91
3122;BME280;1571;52.524;14.104;2024-01-30T02:45:34;102389.56;;;1.31;82.93
3122;BME280;1571;52.524;14.104;2024-01-30T02:48:03;102391.31;;;1.38;83.55
3122;BME280;1571;52.524;14.104;2024-01-30T02:50:31;102392.19;;;1.31;83.39
3122;BME280;1571;52.524;14.104;2024-01-30T02:52:59;102392.19;;;1.34;83.66
3122;BME280;1571;52.524;14.104;2024-01-30T02:55:28;102391.31;;;1.34;83.58
3122;BME280;1571;52.524;14.104;2024-01-30T02:57:57;102387.81;;;1.33;83.84
3122;BME280;1571;52.524;14.104;2024-01-30T03:00:26;102390.34;;;1.07;83.92
3122;BME280;1571;52.524;14.104;2024-01-30T03:02:54;102385.97;;;0.98;84.35
3122;BME280;1571;52.524;14.104;2024-01-30T03:05:22;102386.03;;;1.17;84.55
3122;BME280;1571;52.524;14.104;2024-01-30T03:07:51;102386.84;;;0.99;84.78
3122;BME280;1571;52.524;14.104;2024-01-30T03:10:19;102394.75;;;1.13;84.78
3122;BME280;1571;52.524;14.104;2024-01-30T03:12:48;102386.91;;;1.11;85.03
3122;BME280;1571;52.524;14.104;2024-01-30T03:15:17;102394.69;;;1.03;85.13
3122;BME280;1571;52.524;14.104;2024-01-30T03:17:46;102380.75;;;0.98;85.73
3122;BME280;1571;52.524;14.104;2024-01-30T03:20:14;102381.59;;;0.99;85.68
3122;BME280;1571;52.524;14.104;2024-01-30T03:22:42;102379.00;;;0.97;85.43
3122;BME280;1571;52.524;14.104;2024-01-30T03:25:10;102370.31;;;1.01;85.27
3122;BME280;1571;52.524;14.104;2024-01-30T03:27:39;102373.78;;;0.97;85.21
3122;BME280;1571;52.524;14.104;2024-01-30T03:30:08;102371.16;;;0.96;85.41
3122;BME280;1571;52.524;14.104;2024-01-30T03:32:38;102358.09;;;1.07;85.92
3122;BME280;1571;52.524;14.104;2024-01-30T03:35:06;102358.97;;;1.04;86.06
3122;BME280;1571;52.524;14.104;2024-01-30T03:37:35;102362.47;;;1.06;86.41
3122;BME280;1571;52.524;14.104;2024-01-30T03:40:04;102355.53;;;1.17;85.97
3122;BME280;1571;52.524;14.104;2024-01-30T03:42:32;102358.16;;;1.25;86.10
3122;BME280;1571;52.524;14.104;2024-01-30T03:45:01;102359.91;;;1.35;86.06
3122;BME280;1571;52.524;14.104;2024-01-30T03:47:30;102363.41;;;1.31;85.86
3122;BME280;1571;52.524;14.104;2024-01-30T03:49:59;102360.78;;;1.37;85.90
3122;BME280;1571;52.524;14.104;2024-01-30T03:52:28;102359.91;;;1.38;85.93
3122;BME280;1571;52.524;14.104;2024-01-30T03:54:56;102355.56;;;1.43;85.96
3122;BME280;1571;52.524;14.104;2024-01-30T03:57:24;102356.44;;;1.38;85.84
3122;BME280;1571;52.524;14.104;2024-01-30T03:59:52;102359.91;;;1.38;86.19
3122;BME280;1571;52.524;14.104;2024-01-30T04:02:21;102355.56;;;1.48;86.10
3122;BME280;1571;52.524;14.104;2024-01-30T04:04:50;102352.97;;;1.56;85.67
3122;BME280;1571;52.524;14.104;2024-01-30T04:07:19;102344.25;;;1.69;85.33
3122;BME280;1571;52.524;14.104;2024-01-30T04:09:50;102352.97;;;1.65;84.83
3122;BME280;1571;52.524;14.104;2024-01-30T04:12:19;102358.19;;;1.59;84.77
3122;BME280;1571;52.524;14.104;2024-01-30T04:14:47;102362.53;;;1.60;84.77
3122;BME280;1571;52.524;14.104;2024-01-30T04:17:15;102351.19;;;1.49;85.71
3122;BME280;1571;52.524;14.104;2024-01-30T04:19:43;102366.03;;;1.66;85.69
3122;BME280;1571;52.524;14.104;2024-01-30T04:22:12;102358.19;;;1.77;85.13
3122;BME280;1571;52.524;14.104;2024-01-30T04:24:41;102360.81;;;1.56;85.03
3122;BME280;1571;52.524;14.104;2024-01-30T04:27:09;102359.94;;;1.58;84.95
3122;BME280;1571;52.524;14.104;2024-01-30T04:29:38;102362.56;;;1.54;85.39
3122;BME280;1571;52.524;14.104;2024-01-30T04:32:06;102354.69;;;1.43;85.44
3122;BME280;1571;52.524;14.104;2024-01-30T04:34:36;102361.69;;;1.47;85.51
3122;BME280;1571;52.524;14.104;2024-01-30T04:37:04;102352.09;;;1.58;85.45
3122;BME280;1571;52.524;14.104;2024-01-30T04:39:32;102352.09;;;1.54;85.57
3122;BME280;1571;52.524;14.104;2024-01-30T04:42:02;102361.69;;;1.61;85.75
3122;BME280;1571;52.524;14.104;2024-01-30T04:44:35;102359.97;;;1.78;85.61
3122;BME280;1571;52.524;14.104;2024-01-30T04:47:04;102359.97;;;1.69;85.59
3122;BME280;1571;52.524;14.104;2024-01-30T04:49:33;102359.06;;;1.61;85.37
3122;BME280;1571;52.524;14.104;2024-01-30T04:52:01;102356.44;;;1.55;85.31
3122;BME280;1571;52.524;14.104;2024-01-30T04:54:29;102361.66;;;1.55;85.31
3122;BME280;1571;52.524;14.104;2024-01-30T04:56:58;102354.69;;;1.44;85.20
3122;BME280;1571;52.524;14.104;2024-01-30T04:59:27;102366.91;;;1.45;85.31
3122;BME280;1571;52.524;14.104;2024-01-30T05:01:56;102354.69;;;1.51;85.63
3122;BME280;1571;52.524;14.104;2024-01-30T05:04:24;102362.53;;;1.48;85.45
3122;BME280;1571;52.524;14.104;2024-01-30T05:06:52;102358.16;;;1.43;85.83
3122;BME280;1571;52.524;14.104;2024-01-30T05:09:21;102360.78;;;1.43;85.94
3122;BME280;1571;52.524;14.104;2024-01-30T05:11:49;102354.69;;;1.44;85.75
3122;BME280;1571;52.524;14.104;2024-01-30T05:14:17;102351.19;;;1.35;85.87
3122;BME280;1571;52.524;14.104;2024-01-30T05:16:47;102356.44;;;1.45;86.03
3122;BME280;1571;52.524;14.104;2024-01-30T05:19:15;102350.31;;;1.40;85.84
3122;BME280;1571;52.524;14.104;2024-01-30T05:21:44;102359.91;;;1.24;86.26
3122;BME280;1571;52.524;14.104;2024-01-30T05:24:12;102352.00;;;1.12;86.80
3122;BME280;1571;52.524;14.104;2024-01-30T05:26:41;102358.09;;;1.10;87.05
3122;BME280;1571;52.524;14.104;2024-01-30T05:29:09;102354.63;;;1.09;87.43
3122;BME280;1571;52.524;14.104;2024-01-30T05:31:37;102351.13;;;1.12;87.62
3122;BME280;1571;52.524;14.104;2024-01-30T05:34:07;102350.31;;;1.22;87.63
3122;BME280;1571;52.524;14.104;2024-01-30T05:36:36;102356.41;;;1.30;87.37
3122;BME280;1571;52.524;14.104;2024-01-30T05:39:04;102351.19;;;1.36;87.44
3122;BME280;1571;52.524;14.104;2024-01-30T05:41:35;102359.84;;;1.17;87.42
3122;BME280;1571;52.524;14.104;2024-01-30T05:44:03;102358.13;;;1.17;87.80
3122;BME280;1571;52.524;14.104;2024-01-30T05:46:31;102350.31;;;1.34;87.36
3122;BME280;1571;52.524;14.104;2024-01-30T05:49:00;102354.66;;;1.23;87.33
3122;BME280;1571;52.524;14.104;2024-01-30T05:51:30;102359.88;;;1.20;87.59
3122;BME280;1571;52.524;14.104;2024-01-30T05:53:58;102362.44;;;1.03;88.00
3122;BME280;1571;52.524;14.104;2024-01-30T05:56:26;102365.94;;;1.00;88.36
3122;BME280;1571;52.524;14.104;2024-01-30T05:58:55;102362.47;;;1.21;88.47
3122;BME280;1571;52.524;14.104;2024-01-30T06:01:23;102365.94;;;1.07;88.60
3122;BME280;1571;52.524;14.104;2024-01-30T06:03:52;102361.59;;;1.12;88.59
3122;BME280;1571;52.524;14.104;2024-01-30T06:06:20;102366.81;;;1.15;88.46
3122;BME280;1571;52.524;14.104;2024-01-30T06:08:50;102365.09;;;1.11;88.37
3122;BME280;1571;52.524;14.104;2024-01-30T06:11:18;102365.13;;;1.32;88.15
3122;BME280;1571;52.524;14.104;2024-01-30T06:13:46;102366.88;;;1.32;87.90
3122;BME280;1571;52.524;14.104;2024-01-30T06:16:14;102365.16;;;1.43;87.85
3122;BME280;1571;52.524;14.104;2024-01-30T06:18:43;102364.22;;;1.16;87.81
3122;BME280;1571;52.524;14.104;2024-01-30T06:21:11;102365.13;;;1.23;88.30
3122;BME280;1571;52.524;14.104;2024-01-30T06:23:39;102368.63;;;1.33;88.54
3122;BME280;1571;52.524;14.104;2024-01-30T06:26:09;102359.03;;;1.41;88.64
3122;BME280;1571;52.524;14.104;2024-01-30T06:28:37;102363.44;;;1.47;88.36
3122;BME280;1571;52.524;14.104;2024-01-30T06:31:05;102368.63;;;1.39;88.27
3122;BME280;1571;52.524;14.104;2024-01-30T06:33:34;102358.19;;;1.56;88.24
3122;BME280;1571;52.524;14.104;2024-01-30T06:36:03;102345.97;;;1.61;87.93
3122;BME280;1571;52.524;14.104;2024-01-30T06:38:31;102365.19;;;1.54;87.59
3122;BME280;1571;52.524;14.104;2024-01-30T06:40:59;102365.16;;;1.44;87.77
3122;BME280;1571;52.524;14.104;2024-01-30T06:43:29;102358.16;;;1.37;87.99
3122;BME280;1571;52.524;14.104;2024-01-30T06:45:57;102362.53;;;1.41;88.37
3122;BME280;1571;52.524;14.104;2024-01-30T06:48:26;102357.31;;;1.48;88.05
3122;BME280;1571;52.524;14.104;2024-01-30T06:50:55;102361.63;;;1.30;88.13
3122;BME280;1571;52.524;14.104;2024-01-30T06:53:24;102351.16;;;1.21;88.56
3122;BME280;1571;52.524;14.104;2024-01-30T06:55:53;102358.13;;;1.13;89.15
3122;BME280;1571;52.524;14.104;2024-01-30T06:58:21;102352.94;;;1.40;88.93
3122;BME280;1571;52.524;14.104;2024-01-30T07:00:51;102363.41;;;1.34;88.94
3122;BME280;1571;52.524;14.104;2024-01-30T07:03:19;102352.06;;;1.43;89.08
3122;BME280;1571;52.524;14.104;2024-01-30T07:05:48;102350.31;;;1.43;88.82
3122;BME280;1571;52.524;14.104;2024-01-30T07:08:17;102352.94;;;1.40;88.82
3122;BME280;1571;52.524;14.104;2024-01-30T07:10:45;102342.47;;;1.40;88.55
3122;BME280;1571;52.524;14.104;2024-01-30T07:13:14;102346.81;;;1.32;88.59
3122;BME280;1571;52.524;14.104;2024-01-30T07:15:43;102341.59;;;1.34;88.70
3122;BME280;1571;52.524;14.104;2024-01-30T07:18:13;102341.59;;;1.32;88.85
3122;BME280;1571;52.524;14.104;2024-01-30T07:20:41;102343.31;;;1.39;89.11
3122;BME280;1571;52.524;14.104;2024-01-30T07:23:13;102341.59;;;1.51;88.86
3122;BME280;1571;52.524;14.104;2024-01-30T07:25:43;102333.75;;;1.51;88.83
3122;BME280;1571;52.524;14.104;2024-01-30T07:28:15;102335.50;;;1.50;88.83
3122;BME280;1571;52.524;14.104;2024-01-30T07:30:44;102332.03;;;1.56;88.76
3122;BME280;1571;52.524;14.104;2024-01-30T07:33:14;102332.91;;;1.58;88.52
3122;BME280;1571;52.524;14.104;2024-01-30T07:35:43;102331.13;;;1.51;88.25
3122;BME280;1571;52.524;14.104;2024-01-30T07:38:11;102328.53;;;1.49;88.63
3122;BME280;1571;52.524;14.104;2024-01-30T07:40:39;102333.75;;;1.66;88.79
3122;BME280;1571;52.524;14.104;2024-01-30T07:43:08;102339.00;;;1.78;88.64
3122;BME280;1571;52.524;14.104;2024-01-30T07:45:37;102328.53;;;1.78;88.82
3122;BME280;1571;52.524;14.104;2024-01-30T07:48:06;102325.03;;;1.79;88.61
3122;BME280;1571;52.524;14.104;2024-01-30T07:50:36;102331.13;;;1.92;88.54
3122;BME280;1571;52.524;14.104;2024-01-30T07:53:05;102327.66;;;1.85;88.71
3122;BME280;1571;52.524;14.104;2024-01-30T07:55:33;102319.78;;;2.01;88.36
3122;BME280;1571;52.524;14.104;2024-01-30T07:58:01;102322.38;;;2.10;88.41
3122;BME280;1571;52.524;14.104;2024-01-30T08:00:31;102320.56;;;2.34;88.18
3122;BME280;1571;52.524;14.104;2024-01-30T08:03:00;102324.03;;;2.40;87.39
3122;BME280;1571;52.524;14.104;2024-01-30T08:05:28;102321.34;;;2.60;87.08
3122;BME280;1571;52.524;14.104;2024-01-30T08:07:58;102324.84;;;2.56;86.75
3122;BME280;1571;52.524;14.104;2024-01-30T08:10:26;102308.16;;;2.76;86.42
3122;BME280;1571;52.524;14.104;2024-01-30T08:12:55;102317.66;;;2.98;85.34
3122;BME280;1571;52.524;14.104;2024-01-30T08:15:23;102314.19;;;2.96;85.37
3122;BME280;1571;52.524;14.104;2024-01-30T08:17:51;102317.56;;;3.13;84.75
3122;BME280;1571;52.524;14.104;2024-01-30T08:20:23;102314.84;;;3.26;84.19
3122;BME280;1571;52.524;14.104;2024-01-30T08:22:51;102310.41;;;3.37;83.54
3122;BME280;1571;52.524;14.104;2024-01-30T08:25:21;102307.69;;;3.49;82.67
3122;BME280;1571;52.524;14.104;2024-01-30T08:27:49;102302.28;;;3.68;82.16
3122;BME280;1571;52.524;14.104;2024-01-30T08:30:19;102307.56;;;3.65;81.75
3122;BME280;1571;52.524;14.104;2024-01-30T08:32:47;102303.16;;;3.67;81.56
3122;BME280;1571;52.524;14.104;2024-01-30T08:35:15;102291.56;;;3.89;81.06
3122;BME280;1571;52.524;14.104;2024-01-30T08:37:44;102292.34;;;3.99;80.01
3122;BME280;1571;52.524;14.104;2024-01-30T08:40:12;102290.50;;;4.07;79.41
3122;BME280;1571;52.524;14.104;2024-01-30T08:42:42;102289.56;;;4.14;78.74
3122;BME280;1571;52.524;14.104;2024-01-30T08:45:10;102291.25;;;4.22;79.05
3122;BME280;1571;52.524;14.104;2024-01-30T08:47:40;102286.69;;;4.34;78.26
3122;BME280;1571;52.524;14.104;2024-01-30T08:50:08;102292.00;;;4.31;77.80
3122;BME280;1571;52.524;14.104;2024-01-30T08:52:37;102282.16;;;4.49;77.36
3122;BME280;1571;52.524;14.104;2024-01-30T08:55:06;102278.50;;;4.61;77.27
3122;BME280;1571;52.524;14.104;2024-01-30T08:57:34;102279.50;;;4.50;77.11
3122;BME280;1571;52.524;14.104;2024-01-30T09:00:05;102283.97;;;4.44;77.28
3122;BME280;1571;52.524;14.104;2024-01-30T09:02:36;102281.00;;;4.71;76.70
3122;BME280;1571;52.524;14.104;2024-01-30T09:05:04;102287.22;;;4.63;76.68
3122;BME280;1571;52.524;14.104;2024-01-30T09:07:33;102286.25;;;4.71;76.77
3122;BME280;1571;52.524;14.104;2024-01-30T09:10:01;102287.16;;;4.69;77.33
3122;BME280;1571;52.524;14.104;2024-01-30T09:12:30;102287.00;;;4.79;76.74
3122;BME280;1571;52.524;14.104;2024-01-30T09:14:58;102298.34;;;4.85;76.98
3122;BME280;1571;52.524;14.104;2024-01-30T09:17:28;102294.69;;;4.95;76.60
3122;BME280;1571;52.524;14.104;2024-01-30T09:19:57;102276.66;;;5.28;75.48
3122;BME280;1571;52.524;14.104;2024-01-30T09:22:25;102274.66;;;5.42;74.84
3122;BME280;1571;52.524;14.104;2024-01-30T09:24:54;102276.44;;;5.40;74.55
3122;BME280;1571;52.524;14.104;2024-01-30T09:27:22;102280.84;;;5.39;74.67
3122;BME280;1571;52.524;14.104;2024-01-30T09:29:50;102276.25;;;5.52;74.81
3122;BME280;1571;52.524;14.104;2024-01-30T09:32:19;102280.41;;;5.66;75.02
3122;BME280;1571;52.524;14.104;2024-01-30T09:34:48;102274.25;;;5.65;74.95
3122;BME280;1571;52.524;14.104;2024-01-30T09:37:17;102280.28;;;5.72;74.74
3122;BME280;1571;52.524;14.104;2024-01-30T09:39:45;102277.81;;;5.62;74.70
3122;BME280;1571;52.524;14.104;2024-01-30T09:42:20;102275.75;;;5.80;74.25
3122;BME280;1571;52.524;14.104;2024-01-30T09:44:53;102274.88;;;6.28;72.79
3122;BME280;1571;52.524;14.104;2024-01-30T09:47:21;102266.00;;;6.33;72.19
3122;BME280;1571;52.524;14.104;2024-01-30T09:49:52;102262.22;;;6.45;71.82
3122;BME280;1571;52.524;14.104;2024-01-30T09:52:20;102259.94;;;6.68;70.74
3122;BME280;1571;52.524;14.104;2024-01-30T09:54:49;102258.13;;;6.72;70.25
3122;BME280;1571;52.524;14.104;2024-01-30T09:57:19;102257.19;;;6.75;70.21
3122;BME280;1571;52.524;14.104;2024-01-30T09:59:49;102260.13;;;7.00;69.47
3122;BME280;1571;52.524;14.104;2024-01-30T10:02:19;102258.88;;;7.16;69.08
3122;BME280;1571;52.524;14.104;2024-01-30T10:04:48;102262.63;;;7.43;67.96
3122;BME280;1571;52.524;14.104;2024-01-30T10:07:18;102265.06;;;7.51;67.90
3122;BME280;1571;52.524;14.104;2024-01-30T10:09:46;102260.09;;;7.73;67.06
3122;BME280;1571;52.524;14.104;2024-01-30T10:12:16;102264.22;;;7.83;67.42
3122;BME280;1571;52.524;14.104;2024-01-30T10:14:44;102257.28;;;8.12;65.89
3122;BME280;1571;52.524;14.104;2024-01-30T10:17:13;102251.13;;;8.11;65.34
3122;BME280;1571;52.524;14.104;2024-01-30T10:19:54;102250.69;;;8.27;64.72
3122;BME280;1571;52.524;14.104;2024-01-30T10:22:24;102243.09;;;8.14;63.81
3122;BME280;1571;52.524;14.104;2024-01-30T10:24:52;102237.41;;;8.28;63.78
3122;BME280;1571;52.524;14.104;2024-01-30T10:27:25;102228.69;;;8.56;62.84
3122;BME280;1571;52.524;14.104;2024-01-30T10:29:53;102222.97;;;8.70;61.64
3122;BME280;1571;52.524;14.104;2024-01-30T10:32:21;102217.31;;;8.52;61.58
3122;BME280;1571;52.524;14.104;2024-01-30T10:34:50;102219.75;;;8.88;60.83
3122;BME280;1571;52.524;14.104;2024-01-30T10:37:18;102212.72;;;8.87;60.65
3122;BME280;1571;52.524;14.104;2024-01-30T10:39:53;102214.34;;;8.91;60.20
3122;BME280;1571;52.524;14.104;2024-01-30T10:42:26;102209.72;;;8.70;59.98
3122;BME280;1571;52.524;14.104;2024-01-30T10:44:58;102226.22;;;8.50;60.22
3122;BME280;1571;52.524;14.104;2024-01-30T10:47:28;102212.66;;;8.61;60.26
3122;BME280;1571;52.524;14.104;2024-01-30T10:49:57;102221.31;;;8.66;60.10
3122;BME280;1571;52.524;14.104;2024-01-30T10:52:26;102224.25;;;8.57;60.36
3122;BME280;1571;52.524;14.104;2024-01-30T10:54:58;102214.53;;;8.57;59.84
3122;BME280;1571;52.524;14.104;2024-01-30T10:57:27;102230.84;;;8.43;60.86
3122;BME280;1571;52.524;14.104;2024-01-30T10:59:57;102213.22;;;8.42;60.29
3122;BME280;1571;52.524;14.104;2024-01-30T11:02:26;102218.16;;;8.54;60.00
3122;BME280;1571;52.524;14.104;2024-01-30T11:04:57;102223.34;;;8.58;60.39
3122;BME280;1571;52.524;14.104;2024-01-30T11:07:27;102225.25;;;8.52;60.88
3122;BME280;1571;52.524;14.104;2024-01-30T11:10:02;102220.91;;;8.51;60.37
3122;BME280;1571;52.524;14.104;2024-01-30T11:12:32;102226.09;;;8.54;60.92
3122;BME280;1571;52.524;14.104;2024-01-30T11:15:02;102223.63;;;8.48;61.26
3122;BME280;1571;52.524;14.104;2024-01-30T11:17:49;102223.16;;;8.64;60.72
3122;BME280;1571;52.524;14.104;2024-01-30T11:20:20;102221.22;;;8.69;60.82
3122;BME280;1571;52.524;14.104;2024-01-30T11:22:50;102211.38;;;8.74;60.53
3122;BME280;1571;52.524;14.104;2024-01-30T11:25:21;102219.78;;;8.59;60.88
3122;BME280;1571;52.524;14.104;2024-01-30T11:27:51;102200.38;;;8.86;60.31
3122;BME280;1571;52.524;14.104;2024-01-30T11:30:23;102213.91;;;8.77;60.90
3122;BME280;1571;52.524;14.104;2024-01-30T11:33:03;102211.97;;;8.82;60.64
3122;BME280;1571;52.524;14.104;2024-01-30T11:35:34;102205.06;;;8.78;60.40
3122;BME280;1571;52.524;14.104;2024-01-30T11:38:04;102209.00;;;8.93;60.10
3122;BME280;1571;52.524;14.104;2024-01-30T11:40:35;102208.50;;;8.80;60.65
3122;BME280;1571;52.524;14.104;2024-01-30T11:43:05;102209.47;;;8.78;60.51
3122;BME280;1571;52.524;14.104;2024-01-30T11:45:35;102202.44;;;8.78;60.96
3122;BME280;1571;52.524;14.104;2024-01-30T11:48:04;102210.81;;;8.91;61.17
3122;BME280;1571;52.524;14.104;2024-01-30T11:50:33;102198.41;;;8.93;60.78
3122;BME280;1571;52.524;14.104;2024-01-30T11:53:02;102197.50;;;8.94;61.13
3122;BME280;1571;52.524;14.104;2024-01-30T11:55:33;102200.78;;;8.74;61.15
3122;BME280;1571;52.524;14.104;2024-01-30T11:58:03;102199.56;;;8.84;61.20
3122;BME280;1571;52.524;14.104;2024-01-30T12:00:32;102204.63;;;8.92;61.33
3122;BME280;1571;52.524;14.104;2024-01-30T12:03:03;102201.31;;;8.85;61.26
3122;BME280;1571;52.524;14.104;2024-01-30T12:05:33;102202.72;;;8.95;61.45
3122;BME280;1571;52.524;14.104;2024-01-30T12:08:03;102200.16;;;8.94;61.66
3122;BME280;1571;52.524;14.104;2024-01-30T12:10:31;102202.28;;;8.83;61.27
3122;BME280;1571;52.524;14.104;2024-01-30T12:13:02;102207.38;;;8.61;61.79
3122;BME280;1571;52.524;14.104;2024-01-30T12:15:30;102200.16;;;8.94;61.62
3122;BME280;1571;52.524;14.104;2024-01-30T12:18:05;102195.91;;;8.88;62.09
3122;BME280;1571;52.524;14.104;2024-01-30T12:20:34;102199.94;;;9.00;61.86
3122;BME280;1571;52.524;14.104;2024-01-30T12:23:03;102207.94;;;8.99;61.34
3122;BME280;1571;52.524;14.104;2024-01-30T12:25:32;102200.31;;;8.89;62.09
3122;BME280;1571;52.524;14.104;2024-01-30T12:28:02;102190.41;;;8.94;62.28
3122;BME280;1571;52.524;14.104;2024-01-30T12:30:31;102195.72;;;8.94;61.84
3122;BME280;1571;52.524;14.104;2024-01-30T12:32:59;102195.72;;;8.94;62.22
3122;BME280;1571;52.524;14.104;2024-01-30T12:35:28;102188.66;;;8.93;62.24
3122;BME280;1571;52.524;14.104;2024-01-30T12:38:00;102189.50;;;8.95;62.61
3122;BME280;1571;52.524;14.104;2024-01-30T12:40:28;102183.59;;;8.87;62.39
3122;BME280;1571;52.524;14.104;2024-01-30T12:42:56;102185.50;;;8.82;63.03
3122;BME280;1571;52.524;14.104;2024-01-30T12:45:26;102187.97;;;8.88;63.18
3122;BME280;1571;52.524;14.104;2024-01-30T12:47:54;102180.63;;;8.70;62.91
3122;BME280;1571;52.524;14.104;2024-01-30T12:50:23;102179.31;;;8.83;62.82
3122;BME280;1571;52.524;14.104;2024-01-30T12:52:51;102177.03;;;8.99;62.90
3122;BME280;1571;52.524;14.104;2024-01-30T12:55:19;102164.75;;;8.96;62.99
3122;BME280;1571;52.524;14.104;2024-01-30T12:57:48;102173.75;;;8.91;62.97
3122;BME280;1571;52.524;14.104;2024-01-30T13:00:16;102165.56;;;8.99;62.93
3122;BME280;1571;52.524;14.104;2024-01-30T13:02:47;102174.91;;;8.82;62.96
3122;BME280;1571;52.524;14.104;2024-01-30T13:05:15;102168.28;;;8.69;63.54
3122;BME280;1571;52.524;14.104;2024-01-30T13:07:44;102166.66;;;8.91;63.18
3122;BME280;1571;52.524;14.104;2024-01-30T13:10:12;102165.66;;;8.95;62.86
3122;BME280;1571;52.524;14.104;2024-01-30T13:12:40;102161.47;;;8.88;63.00
3122;BME280;1571;52.524;14.104;2024-01-30T13:15:09;102161.22;;;8.69;63.08
3122;BME280;1571;52.524;14.104;2024-01-30T13:17:38;102157.13;;;8.87;63.19
3122;BME280;1571;52.524;14.104;2024-01-30T13:20:09;102154.13;;;8.70;63.56